Impacts TAF Board INFO
FOR SITUATIONAL AWARENESS. NOT TO BE USED FOR FLIGHT PLANNING PURPOSES.
IDs:

KSTL - St Louis/Lambert Int, MO, US

Issued at 0526 UTC 24 Nov 2017
Updated at 0723 UTC 24 Nov 2017
Potential Impact None Slight Moderate High
Time0651Z 24/08Z 24/09Z 24/10Z 24/11Z 24/12Z 24/13Z 24/14Z 24/15Z 24/16Z 24/17Z 24/18Z 24/19Z 24/20Z>>
Type OBS PRVL PRVL PRVL PRVL PRVL PRVL PRVL PRVL PRVL PRVL PRVL PRVL PRVL
VIS 10 >6 >6 >6 >6 >6 >6 >6 >6 >6 >6 >6 >6 >6
CIG -- -- -- -- -- -- -- -- -- -- -- -- -- --
Cover CLR SCT SCT SCT SCT SCT SCT SCT SCT SCT SCT SCT SCT SCT
FltCat VFR VFR VFR VFR VFR VFR VFR VFR VFR VFR VFR VFR VFR VFR
WX -- -- -- -- -- -- -- -- -- -- -- -- -- --
WDir VRB VRB VRB VRB VRB VRB VRB VRB 190 190 190 190 190 190
WSpd 0 4 4 4 4 4 4 4 12 12 12 12 12 12
WGst -- -- -- -- -- -- -- -- 22 22 22 22 22 22

Raw TAF
KSTL 240526Z 2406/2512 VRB04KT P6SM SCT250
  FM241500 19012G22KT P6SM SCT250
  FM250300 27007KT P6SM BKN250
  FM250500 31007KT P6SM SCT200


Raw METAR
KSTL 240651Z 00000KT 10SM CLR 02/M01 A2992 RMK AO2 SLP136 T00221011
KSTL 240551Z 00000KT 10SM CLR 03/M01 A2994 RMK AO2 SLP143 T00281011 10094 20017 401501006 58008
KSTL 240451Z 00000KT 10SM CLR 03/M01 A2995 RMK AO2 SLP146 T00331011

METAR Board
Radar Display
Forecast Discussion

FOR SITUATIONAL AWARENESS. NOT TO BE USED FOR FLIGHT PLANNING PURPOSES.